CST,Max TemperatureF,Mean TemperatureF,Min TemperatureF,Max Dew PointF,MeanDew PointF,Min DewpointF,Max Humidity, Mean Humidity, Min Humidity, Max Sea Level PressureIn, Mean Sea Level PressureIn, Min Sea Level PressureIn, Max VisibilityMiles, Mean VisibilityMiles, Min VisibilityMiles, Max Wind SpeedMPH, Mean Wind SpeedMPH, Max Gust SpeedMPH,PrecipitationIn, CloudCover, Events, WindDirDegrees
2013-1-1,57,48,37,41,33,24,80,55,35,30.21,30.11,29.94,10,8,5,13,7,16,0.01,3,,355
2013-1-2,48,36,25,24,22,16,69,54,29,30.29,30.24,30.17,9,8,6,9,5,,0.00,0,,40
2013-1-3,44,36,28,25,22,17,75,55,36,30.44,30.36,30.28,10,8,6,8,2,,0.00,7,,61
2013-1-4,41,37,33,36,33,28,96,85,65,30.47,30.40,30.32,9,6,1,9,4,,0.00,8,Rain-Snow,89
2013-1-5,61,47,30,36,32,26,89,67,25,30.35,30.26,30.14,9,8,5,9,4,,0.00,3,,258
2013-1-6,54,38,21,28,22,18,92,59,20,30.40,30.31,30.26,10,8,6,8,2,,0.00,0,,14
2013-1-7,54,38,21,30,25,18,85,62,28,30.27,30.13,30.00,10,8,7,12,2,,0.00,1,,123
2013-1-8,52,47,42,50,44,28,100,89,70,30.00,29.92,29.83,9,4,1,13,4,,0.12,8,Rain,58
2013-1-9,54,51,48,54,49,46,100,92,80,30.07,29.96,29.87,10,7,2,30,7,39,0.71,8,Rain,17
2013-1-10,63,52,42,46,41,37,93,75,38,30.04,29.97,29.91,10,9,6,16,6,25,0.00,5,,254
2013-1-11,73,62,50,53,49,38,93,72,48,29.93,29.81,29.72,10,7,4,13,3,21,0.00,0,,200
2013-1-12,75,57,39,61,50,27,94,73,35,29.92,29.75,29.59,9,6,3,18,5,25,0.00,6,,13
2013-1-13,48,39,30,26,24,20,69,57,34,30.17,30.09,29.94,10,9,8,12,7,16,0.00,0,,18
2013-1-14,45,36,26,25,21,17,69,59,34,30.22,30.15,30.08,10,9,7,12,6,,0.00,1,,53
2013-1-15,39,33,27,28,23,16,75,63,27,30.24,30.14,30.06,9,8,7,16,9,21,0.00,7,,16
2013-1-16,55,37,19,26,19,12,89,55,16,30.32,30.25,30.15,10,9,6,18,4,24,0.00,0,,285
2013-1-17,64,46,28,32,27,24,82,57,25,30.46,30.39,30.29,10,9,7,10,2,18,0.00,0,,345
2013-1-18,60,43,26,32,28,23,89,60,28,30.45,30.35,30.23,10,9,6,10,2,17,0.00,0,,197
2013-1-19,69,50,30,39,32,27,85,58,20,30.22,30.16,30.08,10,9,8,16,5,23,0.00,0,,246
2013-1-20,75,52,28,40,31,26,89,56,10,30.22,30.12,30.02,10,9,6,10,2,,0.00,0,,279
2013-1-21,66,50,33,48,37,29,85,65,39,30.25,30.15,30.08,10,9,6,9,3,,0.00,2,,13
2013-1-22,72,57,42,49,42,35,86,62,26,30.22,30.16,30.12,10,8,7,15,3,23,0.00,2,,201
2013-1-23,75,57,39,53,47,37,93,69,38,30.30,30.18,30.12,9,7,4,16,4,21,0.00,0,,223
2013-1-24,84,66,48,56,50,42,96,68,17,30.25,30.12,30.00,10,6,0,12,3,20,0.00,1,Fog,224
2013-1-25,84,68,52,57,49,40,94,59,21,30.14,30.03,29.94,10,7,4,14,3,,0.00,1,,329
2013-1-26,66,56,46,58,48,38,93,77,66,30.17,30.06,29.97,8,5,2,12,5,,0.00,5,,92
2013-1-27,78,66,55,59,55,53,82,64,41,30.04,29.93,29.84,9,8,7,18,8,23,0.00,2,,184
2013-1-28,79,74,69,63,61,57,87,70,53,29.97,29.85,29.74,8,7,5,23,9,34,0.00,6,,167
2013-1-29,82,67,52,63,46,14,78,53,11,29.82,29.65,29.49,10,7,5,23,13,38,0.08,5,Rain,235
2013-1-30,54,42,30,24,15,7,53,31,14,30.18,30.04,29.76,10,9,7,23,15,33,0.00,0,,302
2013-1-31,66,46,25,21,16,14,66,37,8,30.24,30.19,30.12,10,10,8,15,5,23,0.00,0,,240